Time;durP1;ratioP1;P1;durP2;ratioP2;P2;SDS_P1;SDS_P2;PMS_P1;PMS_P2;Temp;Humidity;BMP_temperature;BMP_pressure;BME280_temperature;BME280_humidity;BME280_pressure;Samples;Min_cycle;Max_cycle;Signal;HPM_P1;HPM_P2
2021/01/15 00:00:43;;;;;;;23.65;11.73;;;;;;;-1.46;100.00;101411.44;4987362;28;20037;-51
2021/01/15 00:03:10;;;;;;;17.77;10.00;;;;;;;-1.44;100.00;101417.47;4992444;28;20244;-50
2021/01/15 00:05:38;;;;;;;22.55;12.25;;;;;;;-1.57;100.00;101423.28;4994582;28;20045;-54
2021/01/15 00:08:06;;;;;;;30.13;12.95;;;;;;;-1.47;100.00;101426.34;4989381;28;20038;-53
2021/01/15 00:10:33;;;;;;;22.63;10.65;;;;;;;-1.61;100.00;101431.34;4987911;28;20046;-53
2021/01/15 00:13:00;;;;;;;24.88;11.65;;;;;;;-1.59;100.00;101447.84;4988434;28;20042;-51
2021/01/15 00:15:27;;;;;;;20.83;10.35;;;;;;;-1.52;100.00;101446.63;4988310;28;20050;-53
2021/01/15 00:17:54;;;;;;;24.60;11.43;;;;;;;-1.53;100.00;101444.97;4988473;28;20061;-52
2021/01/15 00:20:21;;;;;;;22.85;11.38;;;;;;;-1.57;100.00;101449.47;4993379;28;20042;-50
2021/01/15 00:22:47;;;;;;;25.27;12.25;;;;;;;-1.56;100.00;101455.56;4985881;28;20042;-50
2021/01/15 00:25:15;;;;;;;20.90;11.25;;;;;;;-1.59;100.00;101451.31;4989721;28;20053;-51
2021/01/15 00:27:42;;;;;;;26.75;12.77;;;;;;;-1.57;100.00;101456.50;4993853;28;20053;-53
2021/01/15 00:30:10;;;;;;;20.85;10.60;;;;;;;-1.68;100.00;101461.38;4991341;28;20046;-52
2021/01/15 00:32:38;;;;;;;22.50;11.10;;;;;;;-1.79;100.00;101465.28;4989177;28;20137;-53
2021/01/15 00:35:07;;;;;;;24.98;13.13;;;;;;;-1.75;100.00;101471.25;4991536;28;20070;-51
2021/01/15 00:37:34;;;;;;;23.38;10.65;;;;;;;-1.74;100.00;101478.19;4981535;28;20044;-51
2021/01/15 00:40:01;;;;;;;24.23;11.75;;;;;;;-1.67;100.00;101470.91;4980402;28;20049;-53
2021/01/15 00:42:29;;;;;;;23.20;11.55;;;;;;;-1.69;100.00;101478.00;4985349;28;20046;-50
2021/01/15 00:44:59;;;;;;;22.02;11.98;;;;;;;-1.65;100.00;101471.69;4984051;28;20042;-53
2021/01/15 00:47:30;;;;;;;22.58;11.35;;;;;;;-1.77;100.00;101484.41;4988901;28;20042;-52
2021/01/15 00:49:57;;;;;;;21.73;12.20;;;;;;;-1.92;100.00;101485.06;4978367;28;20039;-53
2021/01/15 00:52:25;;;;;;;19.30;10.48;;;;;;;-1.87;100.00;101490.09;4993877;28;20074;-53
2021/01/15 00:54:52;;;;;;;18.58;10.70;;;;;;;-1.93;100.00;101499.06;4975298;28;20334;-52
2021/01/15 00:57:18;;;;;;;24.80;12.90;;;;;;;-1.83;100.00;101494.28;4994425;28;20049;-53
2021/01/15 00:59:46;;;;;;;26.90;12.77;;;;;;;-1.92;100.00;101500.78;4986283;28;20045;-48
2021/01/15 01:02:13;;;;;;;18.40;11.38;;;;;;;-1.76;100.00;101507.06;4982803;28;20436;-50
2021/01/15 01:04:40;;;;;;;23.00;11.48;;;;;;;-1.77;100.00;101515.00;4991789;28;20334;-50
2021/01/15 01:07:07;;;;;;;21.00;11.93;;;;;;;-1.82;100.00;101507.31;4971744;28;20039;-50
2021/01/15 01:09:34;;;;;;;26.02;12.10;;;;;;;-1.86;100.00;101515.38;4983251;28;20042;-51
2021/01/15 01:12:01;;;;;;;21.42;11.43;;;;;;;-1.86;100.00;101511.00;4992733;28;20049;-51
2021/01/15 01:14:28;;;;;;;25.45;12.93;;;;;;;-1.92;100.00;101514.72;4987282;28;20320;-51
2021/01/15 01:16:57;;;;;;;21.27;10.90;;;;;;;-1.86;100.00;101512.75;4985357;28;20418;-55
2021/01/15 01:19:24;;;;;;;19.70;12.77;;;;;;;-1.85;100.00;101528.41;4980790;28;20038;-54
2021/01/15 01:21:53;;;;;;;24.38;12.27;;;;;;;-1.97;100.00;101523.69;4991684;28;20308;-51
2021/01/15 01:24:20;;;;;;;20.33;11.27;;;;;;;-2.01;100.00;101524.72;4983087;28;20042;-53
2021/01/15 01:26:47;;;;;;;18.40;11.77;;;;;;;-2.16;100.00;101537.53;4991899;28;20034;-52
2021/01/15 01:29:14;;;;;;;22.83;12.43;;;;;;;-1.99;100.00;101536.00;4986134;28;20041;-51
2021/01/15 01:31:40;;;;;;;25.90;12.65;;;;;;;-1.93;100.00;101552.31;4985577;28;20435;-53
2021/01/15 01:34:08;;;;;;;27.02;13.23;;;;;;;-1.91;100.00;101555.69;4988334;28;20121;-51
2021/01/15 01:36:35;;;;;;;20.02;11.48;;;;;;;-1.92;100.00;101561.00;4983226;28;20046;-55
2021/01/15 01:39:02;;;;;;;22.42;12.77;;;;;;;-2.04;100.00;101569.34;4986773;28;20362;-54
2021/01/15 01:41:29;;;;;;;29.58;13.52;;;;;;;-2.09;100.00;101573.00;4987868;28;20066;-54
2021/01/15 01:43:56;;;;;;;22.85;11.52;;;;;;;-2.06;100.00;101571.22;4994088;28;20049;-52
2021/01/15 01:46:23;;;;;;;27.40;12.85;;;;;;;-2.18;100.00;101578.66;4974984;28;20432;-55
2021/01/15 01:48:50;;;;;;;27.77;12.68;;;;;;;-2.06;100.00;101576.44;4988864;28;20046;-54
2021/01/15 01:51:18;;;;;;;23.60;11.13;;;;;;;-1.97;100.00;101576.03;4990169;28;20477;-53
2021/01/15 01:53:45;;;;;;;23.27;14.07;;;;;;;-2.10;100.00;101581.81;4994646;28;20038;-54
2021/01/15 01:56:12;;;;;;;24.10;12.02;;;;;;;-2.01;100.00;101588.44;4989721;28;20050;-53
2021/01/15 01:58:40;;;;;;;25.15;12.75;;;;;;;-2.05;100.00;101589.47;4993957;28;20041;-55
2021/01/15 02:01:07;;;;;;;20.45;11.32;;;;;;;-1.89;100.00;101596.69;4985002;28;20455;-54
2021/01/15 02:03:34;;;;;;;26.67;10.90;;;;;;;-1.91;100.00;101599.38;4989306;28;20046;-54
2021/01/15 02:06:01;;;;;;;21.10;11.57;;;;;;;-1.93;100.00;101595.94;4988523;28;20042;-56
2021/01/15 02:08:30;;;;;;;21.95;11.60;;;;;;;-2.06;100.00;101600.84;4995120;28;20116;-55
2021/01/15 02:11:10;;;;;;;25.42;11.90;;;;;;;-2.08;100.00;101603.53;4995824;28;20069;-55
2021/01/15 02:13:42;;;;;;;25.48;12.02;;;;;;;-2.08;100.00;101605.31;4988061;28;20046;-56
2021/01/15 02:16:13;;;;;;;22.13;10.60;;;;;;;-2.00;100.00;101607.59;4980749;28;20053;-54
2021/01/15 02:18:45;;;;;;;21.45;11.43;;;;;;;-1.98;100.00;101609.25;4988732;28;20038;-56
2021/01/15 02:21:36;;;;;;;23.45;11.93;;;;;;;-2.05;100.00;101614.81;4979364;28;20038;-55
2021/01/15 02:24:10;;;;;;;20.25;12.55;;;;;;;-2.05;100.00;101622.66;4987205;28;20054;-56
2021/01/15 02:27:06;;;;;;;20.88;11.40;;;;;;;-2.01;100.00;101629.44;4975389;28;20046;-55
2021/01/15 02:29:33;;;;;;;22.45;12.20;;;;;;;-2.08;100.00;101629.69;4977033;28;20278;-53
2021/01/15 02:32:38;;;;;;;22.15;12.18;;;;;;;-2.11;100.00;101637.69;4988111;28;20327;-55
2021/01/15 02:35:36;;;;;;;19.30;9.70;;;;;;;-2.13;100.00;101641.25;4980949;28;20042;-53
2021/01/15 02:38:19;;;;;;;24.23;10.77;;;;;;;-1.97;100.00;101639.75;4983078;28;20407;-56
2021/01/15 02:40:58;;;;;;;20.02;11.13;;;;;;;-1.97;100.00;101641.50;4979556;28;20379;-56
2021/01/15 02:43:25;;;;;;;22.50;11.40;;;;;;;-2.01;100.00;101645.16;4989276;28;20046;-54
2021/01/15 02:45:55;;;;;;;21.85;10.73;;;;;;;-2.02;99.75;101646.94;4988106;28;20049;-55
2021/01/15 02:48:29;;;;;;;24.67;12.13;;;;;;;-2.21;99.99;101645.94;4991501;28;20465;-57
2021/01/15 02:50:56;;;;;;;24.48;11.50;;;;;;;-2.09;100.00;101650.69;4992489;28;20371;-56
2021/01/15 02:53:24;;;;;;;20.38;10.32;;;;;;;-2.07;99.63;101659.34;4990316;28;20066;-56
2021/01/15 02:55:51;;;;;;;21.88;10.27;;;;;;;-2.11;100.00;101658.63;4987257;28;20070;-55
2021/01/15 02:58:18;;;;;;;21.00;11.23;;;;;;;-2.28;100.00;101661.91;4990264;28;20331;-56
2021/01/15 03:00:44;;;;;;;19.75;10.13;;;;;;;-2.27;100.00;101662.75;4988883;28;20046;-55
2021/01/15 03:03:18;;;;;;;20.42;11.18;;;;;;;-2.17;100.00;101664.09;4987811;28;20038;-53
2021/01/15 03:05:49;;;;;;;18.13;10.10;;;;;;;-2.30;100.00;101666.31;4987068;28;20275;-55
2021/01/15 03:08:18;;;;;;;20.67;10.07;;;;;;;-2.22;100.00;101662.59;4994680;28;20046;-56
2021/01/15 03:10:45;;;;;;;22.65;9.82;;;;;;;-2.17;99.81;101671.09;4986496;28;20034;-55
2021/01/15 03:13:12;;;;;;;24.20;11.15;;;;;;;-2.08;100.00;101668.97;4988587;28;20046;-54
2021/01/15 03:15:40;;;;;;;25.23;11.32;;;;;;;-2.18;99.67;101665.00;4988820;28;20457;-56
2021/01/15 03:18:07;;;;;;;21.65;10.32;;;;;;;-2.16;99.64;101670.19;4986606;28;20045;-55
2021/01/15 03:20:35;;;;;;;21.88;10.63;;;;;;;-2.04;99.50;101676.69;4987390;28;20315;-55
2021/01/15 03:23:03;;;;;;;20.70;10.55;;;;;;;-2.05;99.82;101688.09;4990313;28;20043;-56
2021/01/15 03:25:30;;;;;;;18.00;10.05;;;;;;;-2.04;99.38;101684.53;4988375;28;20118;-53
2021/01/15 03:27:57;;;;;;;23.20;11.07;;;;;;;-2.13;99.78;101691.84;4992523;28;20449;-56
2021/01/15 03:30:26;;;;;;;19.15;10.48;;;;;;;-2.06;99.31;101700.31;4989483;28;20109;-54
2021/01/15 03:32:54;;;;;;;19.30;9.55;;;;;;;-2.07;99.39;101706.44;4985150;28;20050;-53
2021/01/15 03:35:25;;;;;;;20.65;10.07;;;;;;;-1.91;99.28;101701.50;4983999;28;20073;-54
2021/01/15 03:37:56;;;;;;;23.95;10.30;;;;;;;-1.93;99.04;101708.53;4981370;28;20042;-54
2021/01/15 03:40:27;;;;;;;20.25;10.45;;;;;;;-1.98;98.63;101718.34;4986791;28;20046;-55
2021/01/15 03:42:54;;;;;;;23.27;11.73;;;;;;;-2.04;98.81;101716.81;4983100;28;20039;-55
2021/01/15 03:45:21;;;;;;;22.67;10.50;;;;;;;-1.92;98.67;101715.47;4986030;28;20061;-55
2021/01/15 03:47:49;;;;;;;24.42;10.52;;;;;;;-2.02;98.68;101727.25;4980564;28;20055;-54
2021/01/15 03:50:16;;;;;;;20.60;10.65;;;;;;;-2.00;98.77;101730.63;4979761;28;20305;-55
2021/01/15 03:52:43;;;;;;;25.20;11.82;;;;;;;-1.95;98.90;101726.94;4976274;28;20074;-53
2021/01/15 03:55:10;;;;;;;29.52;10.13;;;;;;;-1.91;98.95;101732.91;4989848;28;20486;-51
2021/01/15 03:57:38;;;;;;;22.98;9.98;;;;;;;-2.02;98.45;101741.16;4991664;28;20047;-53
2021/01/15 04:00:06;;;;;;;24.33;11.45;;;;;;;-1.94;99.12;101743.50;4988844;28;20125;-53
2021/01/15 04:02:33;;;;;;;23.88;11.52;;;;;;;-2.09;98.95;101740.53;4990440;28;20045;-56
2021/01/15 04:05:00;;;;;;;25.27;11.15;;;;;;;-2.19;98.91;101744.44;4987286;28;20054;-55
2021/01/15 04:07:29;;;;;;;25.77;12.15;;;;;;;-2.27;99.26;101752.59;4989424;28;20426;-54
2021/01/15 04:09:56;;;;;;;26.52;11.77;;;;;;;-2.06;99.89;101750.06;4988499;28;20042;-54
2021/01/15 04:12:23;;;;;;;29.00;12.48;;;;;;;-2.14;99.66;101752.09;4980563;28;20039;-53
2021/01/15 04:14:51;;;;;;;26.05;12.68;;;;;;;-2.21;100.00;101755.88;4974417;28;20050;-55
2021/01/15 04:17:18;;;;;;;31.63;14.05;;;;;;;-2.10;99.69;101754.56;4980472;28;20045;-55
2021/01/15 04:19:45;;;;;;;27.33;12.50;;;;;;;-2.05;99.65;101761.41;4988871;28;20401;-54
2021/01/15 04:22:12;;;;;;;25.48;12.18;;;;;;;-1.95;99.54;101767.97;4980368;28;20053;-54
2021/01/15 04:24:39;;;;;;;36.08;13.88;;;;;;;-2.04;99.60;101770.94;4976726;28;20050;-56
2021/01/15 04:27:08;;;;;;;28.15;12.35;;;;;;;-2.04;99.30;101768.31;4971849;28;20039;-56
2021/01/15 04:29:36;;;;;;;23.15;11.98;;;;;;;-2.06;99.78;101772.78;4972059;28;20332;-56
2021/01/15 04:32:04;;;;;;;23.08;12.27;;;;;;;-2.06;100.00;101776.22;4975440;28;20042;-53
2021/01/15 04:34:31;;;;;;;23.05;11.45;;;;;;;-1.94;99.57;101782.78;4977391;28;20066;-56
2021/01/15 04:36:58;;;;;;;23.23;11.80;;;;;;;-1.94;99.77;101780.16;4985128;28;20123;-55
2021/01/15 04:39:26;;;;;;;25.55;11.98;;;;;;;-2.18;99.45;101788.03;4980046;28;20265;-55
2021/01/15 04:41:53;;;;;;;30.60;12.52;;;;;;;-2.17;100.00;101789.75;4981298;28;20328;-56
2021/01/15 04:44:20;;;;;;;28.45;13.15;;;;;;;-2.16;99.66;101795.81;4980873;28;20066;-55
2021/01/15 04:46:48;;;;;;;26.35;13.05;;;;;;;-2.15;99.82;101800.16;4977331;28;20046;-55
2021/01/15 04:49:21;;;;;;;32.05;13.48;;;;;;;-2.20;100.00;101799.44;4987453;28;20050;-56
2021/01/15 04:51:52;;;;;;;30.60;14.35;;;;;;;-2.25;99.91;101804.88;4978565;28;20046;-55
2021/01/15 04:54:28;;;;;;;24.98;11.45;;;;;;;-2.26;100.00;101805.75;4988283;28;20045;-54
2021/01/15 04:56:56;;;;;;;26.52;12.35;;;;;;;-2.13;100.00;101811.41;4993119;28;20108;-56
2021/01/15 04:59:23;;;;;;;26.88;11.85;;;;;;;-2.16;100.00;101819.38;4989055;28;20049;-55
2021/01/15 05:01:53;;;;;;;27.52;13.57;;;;;;;-2.26;100.00;101824.09;4994478;28;20057;-54
2021/01/15 05:04:24;;;;;;;27.88;12.32;;;;;;;-2.22;100.00;101825.69;4987347;28;20062;-53
2021/01/15 05:06:52;;;;;;;25.50;12.43;;;;;;;-2.37;100.00;101826.22;4988059;28;20053;-54
2021/01/15 05:09:23;;;;;;;27.88;11.65;;;;;;;-2.33;100.00;101826.06;4989879;28;20042;-53
2021/01/15 05:11:51;;;;;;;27.70;12.85;;;;;;;-2.31;100.00;101836.47;4991552;28;20053;-54
2021/01/15 05:14:19;;;;;;;26.98;12.77;;;;;;;-2.36;100.00;101830.56;4990303;28;20034;-55
2021/01/15 05:16:49;;;;;;;27.00;12.88;;;;;;;-2.37;100.00;101834.91;4986045;28;20037;-53
2021/01/15 05:19:17;;;;;;;25.25;11.68;;;;;;;-2.26;100.00;101839.78;4971919;28;20049;-54
2021/01/15 05:21:50;;;;;;;28.45;12.65;;;;;;;-2.31;100.00;101845.19;4969992;28;20047;-53
2021/01/15 05:24:18;;;;;;;22.95;10.70;;;;;;;-2.32;100.00;101845.25;4979621;28;20069;-53
2021/01/15 05:26:46;;;;;;;24.55;12.07;;;;;;;-2.37;100.00;101855.00;4985450;28;20046;-55
2021/01/15 05:29:15;;;;;;;27.52;11.65;;;;;;;-2.37;100.00;101857.63;4977841;28;20056;-55
2021/01/15 05:31:53;;;;;;;26.58;12.40;;;;;;;-2.36;100.00;101872.44;4974431;28;20073;-53
2021/01/15 05:34:21;;;;;;;25.55;12.00;;;;;;;-2.36;100.00;101867.19;4967786;28;20063;-52
2021/01/15 05:36:49;;;;;;;25.02;12.70;;;;;;;-2.43;100.00;101872.63;4974829;28;20049;-54
2021/01/15 05:39:18;;;;;;;26.55;11.52;;;;;;;-2.49;100.00;101878.09;4969711;28;20054;-54
2021/01/15 05:41:46;;;;;;;27.17;11.40;;;;;;;-2.53;100.00;101873.84;4985530;28;20066;-53
2021/01/15 05:44:25;;;;;;;29.67;11.80;;;;;;;-2.49;100.00;101883.31;4982769;28;20053;-54
2021/01/15 05:46:53;;;;;;;22.75;11.20;;;;;;;-2.60;100.00;101885.44;4989837;28;20046;-53
2021/01/15 05:49:22;;;;;;;21.65;9.95;;;;;;;-2.73;100.00;101885.00;4991687;28;20070;-51
2021/01/15 05:51:50;;;;;;;23.30;9.45;;;;;;;-2.56;100.00;101886.19;4985706;28;20058;-53
2021/01/15 05:54:30;;;;;;;24.45;10.73;;;;;;;-2.67;100.00;101887.41;4986695;28;20038;-53
2021/01/15 05:56:58;;;;;;;21.63;11.20;;;;;;;-2.63;100.00;101894.25;4987492;28;20046;-52
2021/01/15 05:59:30;;;;;;;25.60;12.15;;;;;;;-2.57;100.00;101901.03;4991142;28;20140;-51
2021/01/15 06:01:58;;;;;;;26.00;9.85;;;;;;;-2.72;99.98;101907.63;4986475;28;20422;-55
2021/01/15 06:04:36;;;;;;;27.98;11.43;;;;;;;-2.71;100.00;101908.47;4987742;28;20054;-51
2021/01/15 06:07:20;;;;;;;26.73;10.48;;;;;;;-2.63;99.72;101917.78;4993034;28;20046;-51
2021/01/15 06:09:49;;;;;;;30.13;13.43;;;;;;;-2.54;100.00;101919.22;4985611;28;20129;-54
2021/01/15 06:12:18;;;;;;;24.35;12.10;;;;;;;-2.50;99.93;101920.00;4985011;28;20077;-54
2021/01/15 06:14:49;;;;;;;22.77;10.75;;;;;;;-2.37;99.45;101938.75;4987244;28;20113;-55
2021/01/15 06:17:19;;;;;;;20.65;10.52;;;;;;;-2.26;98.97;101931.38;4974082;28;20058;-49
2021/01/15 06:19:47;;;;;;;27.30;11.85;;;;;;;-2.28;98.48;101933.22;4991995;28;20382;-50
2021/01/15 06:22:30;;;;;;;23.95;10.38;;;;;;;-2.23;98.07;101940.91;4977894;28;20046;-51
2021/01/15 06:25:05;;;;;;;23.17;10.68;;;;;;;-2.29;98.28;101947.19;4980616;28;20047;-52
2021/01/15 06:27:36;;;;;;;24.77;11.95;;;;;;;-2.22;98.31;101947.84;4982444;28;20052;-52
2021/01/15 06:30:06;;;;;;;22.10;11.10;;;;;;;-2.22;97.86;101953.94;4987773;28;20050;-51
2021/01/15 06:32:34;;;;;;;26.05;12.18;;;;;;;-2.20;97.47;101965.19;4985381;28;20043;-50
2021/01/15 06:35:01;;;;;;;26.52;10.77;;;;;;;-2.13;96.99;101961.44;4983845;28;20479;-51
2021/01/15 06:37:29;;;;;;;20.70;10.23;;;;;;;-2.14;96.50;101967.63;4991440;28;20046;-51
2021/01/15 06:40:09;;;;;;;22.25;10.43;;;;;;;-2.11;96.05;101980.59;4981769;28;20449;-50
2021/01/15 06:42:46;;;;;;;22.45;10.77;;;;;;;-2.17;96.61;101980.81;4984366;28;20047;-51
2021/01/15 06:45:16;;;;;;;19.20;9.90;;;;;;;-2.21;96.42;101978.31;4986231;28;20085;-51
2021/01/15 06:47:44;;;;;;;23.23;10.02;;;;;;;-2.23;96.33;101982.78;4988143;28;20056;-52
2021/01/15 06:50:16;;;;;;;20.17;9.77;;;;;;;-2.25;96.67;101985.44;4987818;28;20043;-51
2021/01/15 06:52:49;;;;;;;27.65;13.15;;;;;;;-2.33;96.88;101990.91;4986451;28;20346;-52
2021/01/15 06:55:18;;;;;;;27.27;12.65;;;;;;;-2.31;97.01;101991.72;4993935;28;20038;-51
2021/01/15 06:57:47;;;;;;;28.67;12.32;;;;;;;-2.34;97.24;101990.97;4985832;28;20446;-51
2021/01/15 07:00:20;;;;;;;22.58;11.40;;;;;;;-2.35;97.14;101990.13;4986340;28;20043;-52
2021/01/15 07:03:23;;;;;;;19.35;9.50;;;;;;;-2.42;97.75;101993.84;4990639;28;20041;-50
2021/01/15 07:05:50;;;;;;;30.27;13.35;;;;;;;-2.49;98.58;102003.66;4960381;28;20058;-50
2021/01/15 07:08:18;;;;;;;24.80;10.75;;;;;;;-2.50;98.40;102009.78;4988601;28;20453;-51
2021/01/15 07:10:46;;;;;;;26.50;11.88;;;;;;;-2.55;98.34;102014.31;4987579;28;20046;-50
2021/01/15 07:13:21;;;;;;;36.88;12.73;;;;;;;-2.54;99.31;102015.16;4989456;28;20038;-52
2021/01/15 07:15:53;;;;;;;34.55;11.30;;;;;;;-2.54;99.33;102013.41;4983553;28;20372;-54
2021/01/15 07:18:30;;;;;;;24.00;10.93;;;;;;;-2.48;99.43;102021.06;4988788;28;20342;-52
2021/01/15 07:20:57;;;;;;;21.17;10.82;;;;;;;-2.43;98.99;102027.00;4984602;28;20180;-53
2021/01/15 07:24:02;;;;;;;27.05;10.25;;;;;;;-2.36;98.86;102038.13;4986087;28;20042;-53
2021/01/15 07:26:39;;;;;;;42.13;24.85;;;;;;;-2.35;98.92;102037.22;4980166;28;20057;-49
2021/01/15 07:29:08;;;;;;;26.33;13.10;;;;;;;-2.32;98.43;102049.38;4991240;28;20086;-53
2021/01/15 07:31:38;;;;;;;31.60;17.10;;;;;;;-2.33;99.16;102047.63;4986509;28;20043;-53
2021/01/15 07:34:15;;;;;;;26.08;12.50;;;;;;;-2.27;98.43;102052.66;4982121;28;20035;-52
2021/01/15 07:36:42;;;;;;;22.77;10.45;;;;;;;-2.20;98.30;102062.03;4984854;28;20138;-51
2021/01/15 07:39:11;;;;;;;19.40;9.57;;;;;;;-2.16;98.29;102063.63;4992080;28;20050;-51
2021/01/15 07:41:43;;;;;;;21.70;10.90;;;;;;;-2.17;97.63;102061.94;4990356;28;20047;-53
2021/01/15 07:44:37;;;;;;;23.23;11.50;;;;;;;-2.17;97.66;102066.31;4990053;28;20426;-54
2021/01/15 07:47:11;;;;;;;22.52;10.18;;;;;;;-2.19;97.85;102068.13;4971558;28;20055;-50
2021/01/15 07:49:43;;;;;;;22.83;11.63;;;;;;;-2.14;97.68;102071.44;4979142;28;20042;-51
2021/01/15 07:52:11;;;;;;;22.25;10.35;;;;;;;-2.10;97.98;102070.44;4980916;28;20062;-53
2021/01/15 07:55:04;;;;;;;24.35;10.88;;;;;;;-2.03;97.08;102079.78;4983933;28;20043;-53
2021/01/15 07:57:33;;;;;;;40.60;17.88;;;;;;;-2.03;97.12;102079.78;4973917;28;20053;-51
2021/01/15 08:00:24;;;;;;;57.90;21.88;;;;;;;-2.02;97.31;102080.66;4985279;28;20051;-52
2021/01/15 08:03:01;;;;;;;21.38;9.77;;;;;;;-1.97;97.12;102092.69;4966043;28;20058;-53
2021/01/15 08:05:28;;;;;;;24.60;11.98;;;;;;;-1.97;96.88;102095.31;4982544;28;20047;-52
2021/01/15 08:08:05;;;;;;;69.93;37.13;;;;;;;-1.89;96.33;102091.59;4988820;28;20062;-54
2021/01/15 08:10:33;;;;;;;27.35;14.13;;;;;;;-1.86;96.31;102110.66;4990225;28;20041;-52
2021/01/15 08:13:00;;;;;;;28.95;16.60;;;;;;;-1.86;95.86;102110.66;4990876;28;20034;-53
2021/01/15 08:15:28;;;;;;;26.42;13.23;;;;;;;-1.84;96.47;102119.34;4993622;28;20038;-53
2021/01/15 08:17:55;;;;;;;21.40;11.63;;;;;;;-1.78;96.16;102126.97;4989477;28;20422;-51
2021/01/15 08:20:22;;;;;;;26.63;11.68;;;;;;;-1.73;95.51;102130.31;4989477;28;20327;-54
2021/01/15 08:22:50;;;;;;;22.38;11.25;;;;;;;-1.75;96.20;102131.25;4992196;28;20043;-49
2021/01/15 08:25:27;;;;;;;25.55;14.00;;;;;;;-1.78;96.03;102141.84;4972696;28;20054;-48
2021/01/15 08:27:56;;;;;;;22.05;10.82;;;;;;;-1.77;95.91;102135.72;4986022;28;20057;-54
2021/01/15 08:30:23;;;;;;;26.35;12.82;;;;;;;-1.75;96.45;102152.22;4990235;28;20320;-51
2021/01/15 08:32:50;;;;;;;26.52;11.75;;;;;;;-1.65;95.89;102158.00;4988644;28;20427;-48
2021/01/15 08:35:25;;;;;;;26.58;11.85;;;;;;;-1.66;96.35;102164.16;4989857;28;20030;-49
2021/01/15 08:38:01;;;;;;;23.52;11.90;;;;;;;-1.61;95.71;102164.88;4989096;28;20042;-51
2021/01/15 08:40:29;;;;;;;27.00;13.70;;;;;;;-1.61;96.09;102167.47;4988282;28;20034;-52
2021/01/15 08:42:58;;;;;;;20.85;10.98;;;;;;;-1.51;95.95;102170.66;4988025;28;20077;-52
2021/01/15 08:45:28;;;;;;;29.98;13.90;;;;;;;-1.49;95.57;102177.56;4987270;28;20046;-53
2021/01/15 08:47:56;;;;;;;24.60;12.88;;;;;;;-1.47;95.62;102173.13;4985138;28;20562;-54
2021/01/15 08:50:24;;;;;;;21.48;11.45;;;;;;;-1.41;94.93;102186.00;4982886;28;20047;-52
2021/01/15 08:52:51;;;;;;;26.35;11.85;;;;;;;-1.36;94.77;102187.59;4971153;28;20043;-52
2021/01/15 08:55:19;;;;;;;28.95;13.15;;;;;;;-1.34;94.51;102191.91;4975919;28;20043;-53
2021/01/15 08:57:48;;;;;;;24.40;12.18;;;;;;;-1.30;94.41;102192.66;4987239;28;20363;-53
2021/01/15 09:00:18;;;;;;;24.35;12.30;;;;;;;-1.27;94.63;102203.03;4990479;28;20050;-53
2021/01/15 09:02:46;;;;;;;20.73;11.15;;;;;;;-1.24;93.69;102200.31;4992829;28;20044;-52
2021/01/15 09:05:14;;;;;;;25.90;12.07;;;;;;;-1.21;94.31;102202.81;4989836;28;20042;-54
2021/01/15 09:07:43;;;;;;;21.23;12.10;;;;;;;-1.23;93.98;102202.03;4983469;28;20373;-52
2021/01/15 09:10:12;;;;;;;23.63;12.85;;;;;;;-1.15;93.99;102207.84;4983166;28;20043;-51
2021/01/15 09:12:43;;;;;;;23.50;11.82;;;;;;;-1.13;93.63;102208.66;4982542;28;20385;-49
2021/01/15 09:15:20;;;;;;;23.52;12.43;;;;;;;-1.12;93.80;102215.63;4972170;28;20070;-52
2021/01/15 09:17:48;;;;;;;19.52;12.00;;;;;;;-1.08;93.40;102222.47;4966388;28;20058;-51
2021/01/15 09:20:16;;;;;;;23.98;12.30;;;;;;;-1.04;93.26;102229.28;4976715;28;20049;-53
2021/01/15 09:22:44;;;;;;;24.65;12.88;;;;;;;-1.05;93.36;102226.72;4990244;28;20072;-50
2021/01/15 09:25:12;;;;;;;21.83;11.77;;;;;;;-0.93;93.46;102228.94;4989412;28;20038;-48
2021/01/15 09:27:39;;;;;;;20.42;10.50;;;;;;;-0.76;93.07;102233.56;4975179;28;20042;-53
2021/01/15 09:30:07;;;;;;;19.80;10.23;;;;;;;-0.80;92.20;102239.00;4983387;28;20037;-51
2021/01/15 09:32:36;;;;;;;24.08;11.43;;;;;;;-0.76;92.86;102243.22;4981723;28;20096;-53
2021/01/15 09:35:03;;;;;;;23.48;10.60;;;;;;;-0.59;92.07;102245.25;4983091;28;20117;-54
2021/01/15 09:37:30;;;;;;;18.30;10.93;;;;;;;-0.62;91.23;102246.19;4981054;28;20049;-56
2021/01/15 09:39:57;;;;;;;24.40;12.48;;;;;;;-0.65;91.60;102251.56;4974636;28;20038;-55
2021/01/15 09:42:24;;;;;;;27.42;13.80;;;;;;;-0.63;92.14;102259.38;4986128;28;20038;-51
2021/01/15 09:44:51;;;;;;;21.30;11.93;;;;;;;-0.68;91.60;102256.94;4972893;28;20065;-53
2021/01/15 09:47:18;;;;;;;21.75;12.52;;;;;;;-0.66;91.23;102260.34;4987060;28;20039;-55
2021/01/15 09:49:45;;;;;;;19.55;11.25;;;;;;;-0.65;91.32;102266.44;4989707;28;20049;-53
2021/01/15 09:52:12;;;;;;;19.83;11.93;;;;;;;-0.60;91.23;102265.34;4989982;28;20057;-55
2021/01/15 09:54:39;;;;;;;21.55;11.95;;;;;;;-0.60;91.60;102272.38;4982653;28;20043;-54
2021/01/15 09:57:07;;;;;;;20.80;11.48;;;;;;;-0.56;90.89;102276.63;4982997;28;20042;-55
2021/01/15 09:59:34;;;;;;;25.05;12.98;;;;;;;-0.43;90.43;102277.88;4988756;28;20038;-55
2021/01/15 10:02:01;;;;;;;19.48;10.48;;;;;;;-0.51;90.53;102285.19;4984559;28;20300;-55
2021/01/15 10:04:28;;;;;;;25.77;15.05;;;;;;;-0.44;90.57;102281.44;4990979;28;20074;-55
2021/01/15 10:06:56;;;;;;;22.77;12.00;;;;;;;-0.33;90.20;102282.81;4985421;28;20043;-52
2021/01/15 10:09:23;;;;;;;21.25;11.00;;;;;;;-0.18;89.31;102288.31;4980600;28;20069;-52
2021/01/15 10:11:50;;;;;;;25.13;12.10;;;;;;;-0.28;89.30;102294.00;4983294;28;20126;-56
2021/01/15 10:14:18;;;;;;;25.10;12.32;;;;;;;-0.30;89.49;102291.41;4976578;28;20074;-54
2021/01/15 10:16:47;;;;;;;19.90;10.45;;;;;;;0.01;87.91;102284.16;4962782;28;20359;-53
2021/01/15 10:19:15;;;;;;;19.95;10.02;;;;;;;-0.26;88.42;102294.78;4983942;28;20055;-53
2021/01/15 10:21:42;;;;;;;19.33;10.80;;;;;;;-0.26;88.25;102295.63;4984172;28;20041;-50
2021/01/15 10:24:11;;;;;;;28.10;10.60;;;;;;;-0.21;88.14;102298.09;4971126;28;20046;-50
2021/01/15 10:26:38;;;;;;;19.42;11.65;;;;;;;-0.22;87.29;102302.47;4984721;28;20042;-52
2021/01/15 10:29:08;;;;;;;18.98;10.13;;;;;;;-0.23;88.11;102305.16;4975678;28;20039;-50
2021/01/15 10:31:36;;;;;;;18.13;9.32;;;;;;;0.03;86.37;102304.22;4982873;28;20038;-47
2021/01/15 10:34:03;;;;;;;20.55;10.32;;;;;;;0.14;85.75;102315.16;4976690;28;20466;-50
2021/01/15 10:36:31;;;;;;;17.52;9.52;;;;;;;0.14;86.05;102314.28;4978125;28;20054;-47
2021/01/15 10:38:58;;;;;;;21.05;10.32;;;;;;;0.24;85.26;102313.03;4988633;28;20138;-50
2021/01/15 10:41:30;;;;;;;17.90;9.40;;;;;;;0.17;85.71;102319.41;4981114;28;20338;-50
2021/01/15 10:43:58;;;;;;;20.58;10.02;;;;;;;0.40;84.90;102312.41;4991670;28;20050;-54
2021/01/15 10:46:30;;;;;;;17.75;9.45;;;;;;;0.36;84.34;102319.59;4986602;28;20048;-54
2021/01/15 10:48:57;;;;;;;17.25;10.18;;;;;;;0.47;84.26;102316.53;4992626;28;20053;-53
2021/01/15 10:51:24;;;;;;;21.05;10.65;;;;;;;0.41;83.75;102322.03;4986227;28;20453;-47
2021/01/15 10:53:51;;;;;;;15.77;9.50;;;;;;;0.23;83.91;102316.56;4977567;28;20046;-52
2021/01/15 10:56:18;;;;;;;18.20;9.73;;;;;;;0.46;83.22;102318.28;4980239;28;20050;-50
2021/01/15 10:58:46;;;;;;;17.90;10.45;;;;;;;0.50;82.75;102319.03;4972976;28;20047;-51
2021/01/15 11:01:14;;;;;;;17.90;9.70;;;;;;;0.50;81.97;102312.00;4973868;28;20049;-47
2021/01/15 11:03:45;;;;;;;18.75;10.23;;;;;;;0.42;82.10;102318.47;4977937;28;20100;-52
2021/01/15 11:06:18;;;;;;;18.30;11.02;;;;;;;0.38;81.90;102322.16;4986643;28;20342;-50
2021/01/15 11:08:45;;;;;;;16.10;8.93;;;;;;;0.62;81.84;102318.53;4989907;28;20050;-51
2021/01/15 11:11:12;;;;;;;18.48;10.80;;;;;;;0.60;82.12;102324.78;4988417;28;20126;-52
2021/01/15 11:13:39;;;;;;;21.40;10.68;;;;;;;0.40;82.60;102320.28;4988760;28;20046;-50
2021/01/15 11:16:14;;;;;;;19.90;9.23;;;;;;;0.71;81.25;102326.97;4987460;28;20124;-52
2021/01/15 11:18:41;;;;;;;16.77;9.00;;;;;;;0.61;80.63;102327.34;4986881;28;20042;-51